KOTH

Southwest Oregon Regional Airport

North Bend, Oregon, USA
KOTH 242331Z 2500/2524 36020G30KT P6SM SKC FM250400 01012G18KT P6SM SKC FM250600 02005KT P6SM SKC FM251000 VRB02KT 6SM BR FEW020 FM251800 36010G20KT P6SM SKC
Issued Valid From Valid To
Sep-24 @ 23:31 UTC
(2 hours ago)
Sep-25 @ 00:00 UTC
(an hour ago)
Sep-26 @ 00:00 UTC
(in 23 hours)
Sep-25 @ 00:00 to Sep-25 @ 04:00
KOTH 242331Z 2500/2524 36020G30KT P6SM SKC
Wind Visibility Clouds
360° at 20 knots
 Gusting to 30 knots
Greater than 6 miles
  • Clear skies
From Sep-25 @ 04:00 to Sep-25 @ 06:00
FM250400 01012G18KT P6SM SKC
Wind Visibility Clouds
10° at 12 knots
 Gusting to 18 knots
Greater than 6 miles
  • Clear skies
From Sep-25 @ 06:00 to Sep-25 @ 10:00
FM250600 02005KT P6SM SKC
Wind Visibility Clouds
20° at 5 knots Greater than 6 miles
  • Clear skies
From Sep-25 @ 10:00 to Sep-25 @ 18:00
FM251000 VRB02KT 6SM BR FEW020
Wind Visibility Clouds Conditions
Variable at 2 knots 6 miles
  • Few at 2,000' AGL
  • Mist
From Sep-25 @ 18:00 to Sep-26 @ 00:00
FM251800 36010G20KT P6SM SKC
Wind Visibility Clouds
360° at 10 knots
 Gusting to 20 knots
Greater than 6 miles
  • Clear skies
KOTH 242331Z 2500/2524 36020G30KT P6SM SKC FM250400 01012G18KT P6SM SKC FM250600 02005KT P6SM SKC FM251000 VRB02KT 6SM BR FEW020 FM251800 36010G20KT P6SM SKC
Issued Sep-24 @ 23:31 UTC
(2 hours ago)
Valid From Sep-25 @ 00:00 UTC
(an hour ago)
Valid To Sep-26 @ 00:00 UTC
(in 23 hours)
Sep-25 @ 00:00 - Sep-25 @ 04:00
Wind Visibility
360° at 20 knots
 Gusting to 30 knots
Greater than 6 miles
Clouds
  • Clear skies
From Sep-25 @ 04:00 - Sep-25 @ 06:00
Wind Visibility
10° at 12 knots
 Gusting to 18 knots
Greater than 6 miles
Clouds
  • Clear skies
From Sep-25 @ 06:00 - Sep-25 @ 10:00
Wind Visibility
20° at 5 knots Greater than 6 miles
Clouds
  • Clear skies
From Sep-25 @ 10:00 - Sep-25 @ 18:00
Wind Visibility
Variable at 2 knots 6 miles
Clouds
  • Few at 2,000' AGL
Conditions
  • Mist
From Sep-25 @ 18:00 - Sep-26 @ 00:00
Wind Visibility
360° at 10 knots
 Gusting to 20 knots
Greater than 6 miles
Clouds
  • Clear skies